createdAt,value
2022-10-19T00:01:30.108Z,1019.3
2022-10-19T00:04:30.107Z,1019.4
2022-10-19T00:07:30.146Z,1019.4
2022-10-19T00:10:30.110Z,1019.4
2022-10-19T00:13:30.123Z,1019.5
2022-10-19T00:16:30.117Z,1019.4
2022-10-19T00:19:30.122Z,1019.4
2022-10-19T00:22:30.262Z,1019.4
2022-10-19T00:25:30.149Z,1019.6
2022-10-19T00:28:30.183Z,1019.6
2022-10-19T00:31:30.139Z,1019.6
2022-10-19T00:34:30.135Z,1019.6
2022-10-19T00:37:30.160Z,1019.7
2022-10-19T00:40:30.144Z,1019.7
2022-10-19T00:43:30.181Z,1019.7
2022-10-19T00:46:43.461Z,1019.7
2022-10-19T00:49:30.158Z,1019.7
2022-10-19T00:52:30.337Z,1019.6
2022-10-19T00:55:30.159Z,1019.5
2022-10-19T00:58:30.159Z,1019.5
2022-10-19T01:01:30.277Z,1019.6
2022-10-19T01:04:30.171Z,1019.7
2022-10-19T01:07:30.513Z,1019.6
2022-10-19T01:10:30.289Z,1019.6
2022-10-19T01:13:30.179Z,1019.6
2022-10-19T01:16:30.190Z,1019.6
2022-10-19T01:19:30.217Z,1019.6
2022-10-19T01:22:30.215Z,1019.6
2022-10-19T01:25:30.198Z,1019.6
2022-10-19T01:28:30.226Z,1019.6
2022-10-19T01:31:30.196Z,1019.6
2022-10-19T01:34:30.205Z,1019.6
2022-10-19T01:37:30.385Z,1019.6
2022-10-19T01:40:30.204Z,1019.6
2022-10-19T01:43:30.203Z,1019.6
2022-10-19T01:46:30.202Z,1019.6
2022-10-19T01:49:30.209Z,1019.5
2022-10-19T01:52:30.476Z,1019.4
2022-10-19T01:55:30.240Z,1019.6
2022-10-19T01:58:30.212Z,1019.6
2022-10-19T02:01:30.212Z,1019.6
2022-10-19T02:04:30.215Z,1019.6
2022-10-19T02:07:30.226Z,1019.6
2022-10-19T02:10:30.230Z,1019.5
2022-10-19T02:13:30.265Z,1019.5
2022-10-19T02:16:30.243Z,1019.5
2022-10-19T02:19:30.252Z,1019.5
2022-10-19T02:22:30.424Z,1019.5
2022-10-19T02:25:30.258Z,1019.5
2022-10-19T02:28:30.264Z,1019.4
2022-10-19T02:31:30.291Z,1019.5
2022-10-19T02:34:30.276Z,1019.4
2022-10-19T02:37:30.299Z,1019.5
2022-10-19T02:40:30.282Z,1019.4
2022-10-19T02:43:30.291Z,1019.4
2022-10-19T02:46:30.318Z,1019.5
2022-10-19T02:49:30.325Z,1019.5
2022-10-19T02:52:30.327Z,1019.5
2022-10-19T02:55:30.332Z,1019.6
2022-10-19T02:58:30.318Z,1019.6
2022-10-19T03:01:30.316Z,1019.7
2022-10-19T03:04:30.320Z,1019.7
2022-10-19T03:07:30.368Z,1019.7
2022-10-19T03:10:30.332Z,1019.6
2022-10-19T03:13:30.341Z,1019.7
2022-10-19T03:16:30.345Z,1019.7
2022-10-19T03:19:30.348Z,1019.7
2022-10-19T03:22:30.370Z,1019.7
2022-10-19T03:25:30.387Z,1019.8
2022-10-19T03:28:30.382Z,1019.8
2022-10-19T03:31:30.368Z,1019.8
2022-10-19T03:34:30.371Z,1019.8
2022-10-19T03:37:30.385Z,1019.8
2022-10-19T03:40:30.383Z,1019.7
2022-10-19T03:43:30.412Z,1019.8
2022-10-19T03:46:30.393Z,1019.9
2022-10-19T03:49:30.407Z,1019.9
2022-10-19T03:52:30.431Z,1019.9
2022-10-19T03:55:30.420Z,1020
2022-10-19T03:58:30.415Z,1020
2022-10-19T04:01:30.506Z,1020
2022-10-19T04:04:30.436Z,1019.9
2022-10-19T04:07:30.548Z,1020
2022-10-19T04:10:30.448Z,1020.1
2022-10-19T04:13:30.442Z,1020
2022-10-19T04:16:30.448Z,1020.1
2022-10-19T04:19:30.482Z,1020.2
2022-10-19T04:22:30.485Z,1020.2
2022-10-19T04:25:30.475Z,1020.2
2022-10-19T04:28:30.532Z,1020.2
2022-10-19T04:31:30.482Z,1020.2
2022-10-19T04:34:30.494Z,1020.1
2022-10-19T04:37:30.597Z,1020.1
2022-10-19T04:40:30.506Z,1020.2
2022-10-19T04:43:30.510Z,1020.2
2022-10-19T04:46:30.523Z,1020.2
2022-10-19T04:49:30.525Z,1020.2
2022-10-19T04:52:30.553Z,1020.1
2022-10-19T04:55:30.566Z,1020.2
2022-10-19T04:58:30.545Z,1020.2
2022-10-19T05:01:30.556Z,1020.1
2022-10-19T05:04:30.561Z,1020.2
2022-10-19T05:07:30.974Z,1020.1
2022-10-19T05:10:30.576Z,1020.1
2022-10-19T05:13:30.603Z,1020.1
2022-10-19T05:16:30.589Z,1020.1
2022-10-19T05:19:30.600Z,1020.1
2022-10-19T05:22:30.612Z,1020.1
2022-10-19T05:25:30.613Z,1020.1
2022-10-19T05:28:30.660Z,1020.1
2022-10-19T05:31:30.667Z,1020
2022-10-19T05:34:30.641Z,1020.2
2022-10-19T05:37:30.788Z,1020.2
2022-10-19T05:40:30.652Z,1020.2
2022-10-19T05:43:30.658Z,1020.3
2022-10-19T05:46:30.667Z,1020.3
2022-10-19T05:49:30.701Z,1020.1
2022-10-19T05:52:30.705Z,1020.1
2022-10-19T05:55:30.694Z,1020.1
2022-10-19T05:58:30.703Z,1020.3
2022-10-19T06:01:30.742Z,1020.3
2022-10-19T06:04:30.722Z,1020.3
2022-10-19T06:07:30.827Z,1020.3
2022-10-19T06:10:30.741Z,1020.3
2022-10-19T06:13:30.773Z,1020.4
2022-10-19T06:16:30.759Z,1020.4
2022-10-19T06:19:30.762Z,1020.4
2022-10-19T06:22:30.784Z,1020.2
2022-10-19T06:25:30.810Z,1020.3
2022-10-19T06:28:30.790Z,1020.4
2022-10-19T06:31:30.799Z,1020.3
2022-10-19T06:34:30.873Z,1020.4
2022-10-19T06:37:30.999Z,1020.5
2022-10-19T06:40:30.875Z,1020.4
2022-10-19T06:43:30.862Z,1020.4
2022-10-19T06:46:30.846Z,1020.4
2022-10-19T06:49:30.859Z,1020.4
2022-10-19T06:52:31.032Z,1020.4
2022-10-19T06:55:30.880Z,1020.5
2022-10-19T06:58:30.888Z,1020.5
2022-10-19T07:01:30.948Z,1020.6
2022-10-19T07:04:30.910Z,1020.6
2022-10-19T07:07:31.065Z,1020.5
2022-10-19T07:10:30.942Z,1020.6
2022-10-19T07:13:30.942Z,1020.6
2022-10-19T07:16:30.961Z,1020.7
2022-10-19T07:19:31.012Z,1020.7
2022-10-19T07:22:31.017Z,1020.7
2022-10-19T07:25:30.992Z,1020.8
2022-10-19T07:28:30.997Z,1020.8
2022-10-19T07:31:31.028Z,1020.8
2022-10-19T07:34:31.026Z,1020.8
2022-10-19T07:37:31.151Z,1020.9
2022-10-19T07:40:31.042Z,1020.8
2022-10-19T07:43:31.069Z,1020.9
2022-10-19T07:46:31.072Z,1020.8
2022-10-19T07:49:31.086Z,1020.8
2022-10-19T07:52:33.060Z,1020.8
2022-10-19T07:55:31.131Z,1020.8
2022-10-19T07:58:31.122Z,1020.8
2022-10-19T08:01:31.132Z,1020.9
2022-10-19T08:04:55.809Z,1021
2022-10-19T08:07:31.158Z,1021
2022-10-19T08:10:31.176Z,1021
2022-10-19T08:13:31.213Z,1021
2022-10-19T08:16:31.359Z,1021
2022-10-19T08:19:31.211Z,1021
2022-10-19T08:22:31.304Z,1021
2022-10-19T08:25:31.235Z,1020.9
2022-10-19T08:28:31.247Z,1021
2022-10-19T08:31:31.291Z,1021.1
2022-10-19T08:34:31.265Z,1021.1
2022-10-19T08:37:44.029Z,1021
2022-10-19T08:40:31.287Z,1020.9
2022-10-19T08:43:31.286Z,1020.9
2022-10-19T08:46:31.297Z,1021
2022-10-19T08:49:31.349Z,1021
2022-10-19T08:52:34.361Z,1021.1
2022-10-19T08:55:31.332Z,1021
2022-10-19T08:58:31.339Z,1021
2022-10-19T09:01:32.658Z,1021
2022-10-19T09:04:31.359Z,1021
2022-10-19T09:07:31.493Z,1021
2022-10-19T09:10:31.377Z,1021
2022-10-19T09:13:36.365Z,1021.1
2022-10-19T09:16:31.401Z,1021.1
2022-10-19T09:19:31.415Z,1021.1
2022-10-19T09:22:31.548Z,1021.1
2022-10-19T09:25:31.455Z,1020.9
2022-10-19T09:28:33.955Z,1021
2022-10-19T09:31:31.798Z,1021
2022-10-19T09:34:31.473Z,1021
2022-10-19T09:37:31.496Z,1021
2022-10-19T09:40:31.494Z,1021
2022-10-19T09:43:31.528Z,1021
2022-10-19T09:46:31.571Z,1020.9
2022-10-19T09:49:31.528Z,1021
2022-10-19T09:52:31.532Z,1021.1
2022-10-19T09:55:31.541Z,1021
2022-10-19T09:58:32.893Z,1021
2022-10-19T10:01:40.054Z,1021
2022-10-19T10:04:31.600Z,1020.9
2022-10-19T10:07:31.841Z,1021
2022-10-19T10:10:31.630Z,1020.9
2022-10-19T10:13:31.640Z,1020.9
2022-10-19T10:16:31.635Z,1020.9
2022-10-19T10:19:31.664Z,1021
2022-10-19T10:22:31.724Z,1021
2022-10-19T10:25:31.649Z,1020.8
2022-10-19T10:28:31.641Z,1021
2022-10-19T10:31:31.654Z,1021
2022-10-19T10:34:38.695Z,1021
2022-10-19T10:37:31.914Z,1021
2022-10-19T10:40:31.650Z,1021
2022-10-19T10:43:31.643Z,1021
2022-10-19T10:46:31.644Z,1021
2022-10-19T10:49:31.649Z,1021
2022-10-19T10:52:31.961Z,1021
2022-10-19T10:55:31.675Z,1021
2022-10-19T10:58:31.663Z,1021
2022-10-19T11:01:31.704Z,1020.9
2022-10-19T11:04:31.654Z,1021
2022-10-19T11:07:31.747Z,1020.9
2022-10-19T11:10:31.668Z,1020.9
2022-10-19T11:13:31.690Z,1020.9
2022-10-19T11:16:31.667Z,1020.9
2022-10-19T11:19:31.675Z,1020.8
2022-10-19T11:22:31.675Z,1020.9
2022-10-19T11:25:31.675Z,1020.8
2022-10-19T11:28:31.679Z,1020.8
2022-10-19T11:31:31.711Z,1020.8
2022-10-19T11:34:31.680Z,1020.8
2022-10-19T11:37:31.718Z,1020.6
2022-10-19T11:40:31.685Z,1020.5
2022-10-19T11:43:31.691Z,1020.4
2022-10-19T11:46:31.690Z,1020.4
2022-10-19T11:49:31.713Z,1020.4
2022-10-19T11:52:31.889Z,1020.4
2022-10-19T11:55:31.692Z,1020.3
2022-10-19T11:58:34.763Z,1020.3
2022-10-19T12:01:31.704Z,1020.4
2022-10-19T12:04:31.707Z,1020.2
2022-10-19T12:07:31.739Z,1020.3
2022-10-19T12:10:31.724Z,1020.3
2022-10-19T12:13:31.721Z,1020.3
2022-10-19T12:16:31.727Z,1020.2
2022-10-19T12:19:31.738Z,1020.2
2022-10-19T12:22:31.727Z,1020.2
2022-10-19T12:25:31.802Z,1020.1
2022-10-19T12:28:31.744Z,1020
2022-10-19T12:31:31.770Z,1020
2022-10-19T12:34:31.757Z,1019.9
2022-10-19T12:37:31.903Z,1019.9
2022-10-19T12:40:31.760Z,1019.9
2022-10-19T12:43:31.787Z,1019.8
2022-10-19T12:46:31.766Z,1019.7
2022-10-19T12:49:31.775Z,1019.7
2022-10-19T12:52:31.891Z,1019.7
2022-10-19T12:55:31.789Z,1019.8
2022-10-19T12:58:31.788Z,1019.8
2022-10-19T13:01:31.813Z,1019.7
2022-10-19T13:04:31.795Z,1019.7
2022-10-19T13:07:32.122Z,1019.7
2022-10-19T13:10:31.806Z,1019.7
2022-10-19T13:13:31.812Z,1019.6
2022-10-19T13:16:31.817Z,1019.6
2022-10-19T13:19:31.835Z,1019.5
2022-10-19T13:22:31.828Z,1019.5
2022-10-19T13:25:31.826Z,1019.5
2022-10-19T13:28:31.828Z,1019.5
2022-10-19T13:31:31.830Z,1019.5
2022-10-19T13:34:31.835Z,1019.5
2022-10-19T13:37:34.652Z,1019.6
2022-10-19T13:40:31.854Z,1019.5
2022-10-19T13:43:31.859Z,1019.5
2022-10-19T13:46:31.869Z,1019.5
2022-10-19T13:49:32.625Z,1019.5
2022-10-19T13:52:32.072Z,1019.4
2022-10-19T13:55:31.906Z,1019.5
2022-10-19T13:58:31.896Z,1019.5
2022-10-19T14:01:31.967Z,1019.4
2022-10-19T14:04:31.904Z,1019.5
2022-10-19T14:07:32.165Z,1019.5
2022-10-19T14:10:32.983Z,1019.5
2022-10-19T14:13:31.952Z,1019.5
2022-10-19T14:16:31.929Z,1019.4
2022-10-19T14:19:31.944Z,1019.4
2022-10-19T14:22:31.945Z,1019.4
2022-10-19T14:25:31.959Z,1019.3
2022-10-19T14:28:31.958Z,1019.4
2022-10-19T14:31:31.992Z,1019.3
2022-10-19T14:34:31.972Z,1019.3
2022-10-19T14:37:32.092Z,1019.2
2022-10-19T14:40:31.987Z,1019.3
2022-10-19T14:43:32.019Z,1019.4
2022-10-19T14:46:32.007Z,1019.3
2022-10-19T14:49:32.036Z,1019.3
2022-10-19T14:52:32.024Z,1019.3
2022-10-19T14:55:32.027Z,1019.3
2022-10-19T14:58:32.035Z,1019.3
2022-10-19T15:01:32.122Z,1019.3
2022-10-19T15:04:32.045Z,1019.2
2022-10-19T15:07:32.080Z,1019.2
2022-10-19T15:10:35.659Z,1019.1
2022-10-19T15:13:32.071Z,1019.2
2022-10-19T15:16:32.081Z,1019
2022-10-19T15:19:32.088Z,1019.1
2022-10-19T15:22:32.408Z,1019.1
2022-10-19T15:25:32.129Z,1019.2
2022-10-19T15:28:33.061Z,1019.3
2022-10-19T15:31:32.119Z,1019.2
2022-10-19T15:34:32.140Z,1019.2
2022-10-19T15:37:32.136Z,1019.2
2022-10-19T15:40:32.143Z,1019.2
2022-10-19T15:43:32.174Z,1019.2
2022-10-19T15:46:32.207Z,1019.1
2022-10-19T15:49:32.164Z,1019.1
2022-10-19T15:52:32.173Z,1019.1
2022-10-19T15:55:32.181Z,1019.1
2022-10-19T15:58:32.192Z,1019
2022-10-19T16:01:32.293Z,1019
2022-10-19T16:04:32.208Z,1019
2022-10-19T16:07:32.379Z,1019
2022-10-19T16:10:32.220Z,1019.1
2022-10-19T16:13:32.228Z,1019.1
2022-10-19T16:16:32.239Z,1019.1
2022-10-19T16:19:32.265Z,1019.1
2022-10-19T16:22:32.257Z,1019
2022-10-19T16:25:32.248Z,1019
2022-10-19T16:28:32.261Z,1019
2022-10-19T16:31:32.260Z,1018.9
2022-10-19T16:34:32.272Z,1019
2022-10-19T16:37:32.482Z,1019
2022-10-19T16:40:32.282Z,1018.9
2022-10-19T16:43:32.288Z,1019
2022-10-19T16:46:32.294Z,1018.9
2022-10-19T16:49:32.303Z,1018.9
2022-10-19T16:52:32.488Z,1019
2022-10-19T16:55:32.333Z,1019
2022-10-19T16:58:32.313Z,1018.9
2022-10-19T17:01:32.356Z,1018.9
2022-10-19T17:04:32.322Z,1018.8
2022-10-19T17:07:32.320Z,1018.9
2022-10-19T17:10:32.354Z,1018.8
2022-10-19T17:13:32.353Z,1018.8
2022-10-19T17:16:32.348Z,1018.8
2022-10-19T17:19:32.336Z,1018.9
2022-10-19T17:22:32.597Z,1018.9
2022-10-19T17:25:32.339Z,1018.9
2022-10-19T17:28:32.340Z,1019
2022-10-19T17:31:32.368Z,1019
2022-10-19T17:34:32.356Z,1019.1
2022-10-19T17:37:32.544Z,1019
2022-10-19T17:40:32.363Z,1019.1
2022-10-19T17:43:32.372Z,1019.1
2022-10-19T17:46:32.371Z,1019
2022-10-19T17:49:32.396Z,1019
2022-10-19T17:52:32.374Z,1019
2022-10-19T17:55:32.381Z,1019
2022-10-19T17:58:33.260Z,1019
2022-10-19T18:01:32.376Z,1019.1
2022-10-19T18:04:32.456Z,1019.1
2022-10-19T18:07:32.605Z,1019
2022-10-19T18:10:32.405Z,1019
2022-10-19T18:13:32.411Z,1019
2022-10-19T18:16:32.412Z,1019
2022-10-19T18:19:32.419Z,1019
2022-10-19T18:22:32.477Z,1018.9
2022-10-19T18:25:49.662Z,1018.9
2022-10-19T18:28:32.441Z,1019
2022-10-19T18:31:32.457Z,1019
2022-10-19T18:34:32.522Z,1019.1
2022-10-19T18:37:32.469Z,1019.1
2022-10-19T18:40:32.481Z,1018.9
2022-10-19T18:43:32.518Z,1019
2022-10-19T18:46:32.502Z,1019
2022-10-19T18:49:32.514Z,1019
2022-10-19T18:52:32.753Z,1019
2022-10-19T18:55:32.542Z,1019.1
2022-10-19T18:58:32.545Z,1019.1
2022-10-19T19:01:32.639Z,1019.1
2022-10-19T19:04:32.563Z,1019.1
2022-10-19T19:07:32.581Z,1019.1
2022-10-19T19:10:32.582Z,1019.1
2022-10-19T19:13:32.656Z,1019.2
2022-10-19T19:16:32.608Z,1019.2
2022-10-19T19:19:32.642Z,1019.2
2022-10-19T19:22:32.831Z,1019.1
2022-10-19T19:25:32.635Z,1019.1
2022-10-19T19:28:33.765Z,1019.2
2022-10-19T19:31:32.665Z,1019.2
2022-10-19T19:34:32.669Z,1019.2
2022-10-19T19:37:32.967Z,1019.1
2022-10-19T19:40:32.702Z,1019.1
2022-10-19T19:43:32.706Z,1019
2022-10-19T19:46:32.699Z,1019.1
2022-10-19T19:49:32.714Z,1019
2022-10-19T19:52:34.875Z,1018.9
2022-10-19T19:55:34.060Z,1018.9
2022-10-19T19:58:32.739Z,1018.8
2022-10-19T20:01:32.941Z,1018.9
2022-10-19T20:04:32.752Z,1018.7
2022-10-19T20:07:32.966Z,1018.7
2022-10-19T20:10:32.766Z,1018.6
2022-10-19T20:13:32.800Z,1018.7
2022-10-19T20:16:32.776Z,1018.6
2022-10-19T20:19:32.785Z,1018.5
2022-10-19T20:22:32.794Z,1018.5
2022-10-19T20:25:32.804Z,1018.6
2022-10-19T20:28:32.807Z,1018.6
2022-10-19T20:31:32.832Z,1018.5
2022-10-19T20:34:32.815Z,1018.4
2022-10-19T20:37:32.816Z,1018.5
2022-10-19T20:40:32.829Z,1018.5
2022-10-19T20:43:32.830Z,1018.6
2022-10-19T20:46:32.837Z,1018.5
2022-10-19T20:49:32.875Z,1018.5
2022-10-19T20:52:33.106Z,1018.5
2022-10-19T20:55:32.876Z,1018.6
2022-10-19T20:58:32.887Z,1018.4
2022-10-19T21:01:32.922Z,1018.3
2022-10-19T21:04:32.908Z,1018.4
2022-10-19T21:07:32.943Z,1018.4
2022-10-19T21:10:32.926Z,1018.4
2022-10-19T21:13:32.933Z,1018.3
2022-10-19T21:16:32.946Z,1018.3
2022-10-19T21:19:32.968Z,1018.3
2022-10-19T21:22:34.466Z,1018.2
2022-10-19T21:25:33.013Z,1018.2
2022-10-19T21:28:32.998Z,1018.2
2022-10-19T21:31:33.013Z,1018.2
2022-10-19T21:34:33.021Z,1018.2
2022-10-19T21:37:33.272Z,1018.1
2022-10-19T21:40:33.058Z,1018.2
2022-10-19T21:43:33.096Z,1018.2
2022-10-19T21:46:33.084Z,1018.2
2022-10-19T21:49:33.095Z,1018.2
2022-10-19T21:52:33.108Z,1018.1
2022-10-19T21:55:33.120Z,1018.2
2022-10-19T21:58:33.129Z,1018.2
2022-10-19T22:01:35.961Z,1018.2
2022-10-19T22:04:33.142Z,1018.2
2022-10-19T22:07:33.409Z,1018.2
2022-10-19T22:10:33.178Z,1018.2
2022-10-19T22:13:33.195Z,1018.2
2022-10-19T22:16:33.201Z,1018.1
2022-10-19T22:19:33.231Z,1018.1
2022-10-19T22:22:33.485Z,1018
2022-10-19T22:25:33.246Z,1018
2022-10-19T22:28:33.256Z,1018
2022-10-19T22:31:33.270Z,1018
2022-10-19T22:34:33.285Z,1017.9
2022-10-19T22:37:33.327Z,1017.8
2022-10-19T22:40:33.315Z,1017.9
2022-10-19T22:43:33.327Z,1017.8
2022-10-19T22:46:33.343Z,1017.9
2022-10-19T22:49:33.357Z,1017.8
2022-10-19T22:52:33.669Z,1017.8
2022-10-19T22:55:33.405Z,1017.7
2022-10-19T22:58:33.399Z,1017.7
2022-10-19T23:01:33.482Z,1017.6
2022-10-19T23:04:33.442Z,1017.6
2022-10-19T23:07:33.584Z,1017.4
2022-10-19T23:10:33.464Z,1017.5
2022-10-19T23:13:33.502Z,1017.4
2022-10-19T23:16:33.493Z,1017.3
2022-10-19T23:19:33.629Z,1017.3
2022-10-19T23:22:33.533Z,1017.4
2022-10-19T23:25:33.552Z,1017.3
2022-10-19T23:28:33.566Z,1017.5
2022-10-19T23:31:33.610Z,1017.4
2022-10-19T23:37:33.902Z,1017.4
2022-10-19T23:40:33.630Z,1017.4
2022-10-19T23:43:33.711Z,1017.3
2022-10-19T23:46:33.663Z,1017.4
2022-10-19T23:49:33.701Z,1017.3
2022-10-19T23:52:33.693Z,1017.3
2022-10-19T23:55:33.716Z,1017.3
2022-10-19T23:58:33.736Z,1017.3
